sensor_id;sensor_type;location;lat;lon;timestamp;pressure;altitude;pressure_sealevel;temperature;humidity
60019;BME280;45870;42.528;26.740;2023-04-01T00:00:20;98983.47;;;18.71;43.00
60019;BME280;45870;42.528;26.740;2023-04-01T00:02:46;98987.41;;;18.65;42.99
60019;BME280;45870;42.528;26.740;2023-04-01T00:05:12;98989.06;;;18.33;43.05
60019;BME280;45870;42.528;26.740;2023-04-01T00:07:39;98979.25;;;17.73;44.77
60019;BME280;45870;42.528;26.740;2023-04-01T00:10:08;98990.78;;;16.90;46.53
60019;BME280;45870;42.528;26.740;2023-04-01T00:12:35;98995.56;;;17.91;43.96
60019;BME280;45870;42.528;26.740;2023-04-01T00:15:01;98977.75;;;16.63;46.61
60019;BME280;45870;42.528;26.740;2023-04-01T00:17:27;98971.25;;;16.35;48.18
60019;BME280;45870;42.528;26.740;2023-04-01T00:19:55;98976.72;;;17.02;45.51
60019;BME280;45870;42.528;26.740;2023-04-01T00:22:21;98975.91;;;17.76;43.28
60019;BME280;45870;42.528;26.740;2023-04-01T00:24:47;98977.47;;;16.65;45.83
60019;BME280;45870;42.528;26.740;2023-04-01T00:27:13;98984.56;;;16.37;46.55
60019;BME280;45870;42.528;26.740;2023-04-01T00:29:43;98972.44;;;17.14;45.00
60019;BME280;45870;42.528;26.740;2023-04-01T00:32:10;98965.59;;;16.98;44.39
60019;BME280;45870;42.528;26.740;2023-04-01T00:34:36;98969.84;;;14.43;51.17
60019;BME280;45870;42.528;26.740;2023-04-01T00:37:02;98960.13;;;15.74;48.47
60019;BME280;45870;42.528;26.740;2023-04-01T00:39:31;98963.84;;;15.55;49.01
60019;BME280;45870;42.528;26.740;2023-04-01T00:41:58;98961.47;;;15.38;48.98
60019;BME280;45870;42.528;26.740;2023-04-01T00:44:27;98956.94;;;16.48;46.15
60019;BME280;45870;42.528;26.740;2023-04-01T00:46:54;98959.94;;;16.23;47.20
60019;BME280;45870;42.528;26.740;2023-04-01T00:49:23;98950.81;;;16.09;47.73
60019;BME280;45870;42.528;26.740;2023-04-01T00:51:53;98949.81;;;16.53;45.21
60019;BME280;45870;42.528;26.740;2023-04-01T00:54:23;98938.34;;;16.32;46.16
60019;BME280;45870;42.528;26.740;2023-04-01T00:57:02;98935.16;;;15.33;49.85
60019;BME280;45870;42.528;26.740;2023-04-01T00:59:34;98934.03;;;16.26;47.44
60019;BME280;45870;42.528;26.740;2023-04-01T01:02:03;98930.34;;;15.88;48.07
60019;BME280;45870;42.528;26.740;2023-04-01T01:04:31;98918.84;;;16.20;47.51
60019;BME280;45870;42.528;26.740;2023-04-01T01:15:32;98914.28;;;16.39;46.70
60019;BME280;45870;42.528;26.740;2023-04-01T01:18:16;98910.84;;;15.47;48.62
60019;BME280;45870;42.528;26.740;2023-04-01T01:37:09;98922.31;;;16.02;46.19
60019;BME280;45870;42.528;26.740;2023-04-01T01:39:36;98928.88;;;16.01;46.26
60019;BME280;45870;42.528;26.740;2023-04-01T01:42:06;98925.69;;;16.17;45.88
60019;BME280;45870;42.528;26.740;2023-04-01T01:44:35;98922.53;;;16.05;45.82
60019;BME280;45870;42.528;26.740;2023-04-01T01:47:02;98889.59;;;16.07;45.10
60019;BME280;45870;42.528;26.740;2023-04-01T01:49:30;98911.88;;;15.17;47.55
60019;BME280;45870;42.528;26.740;2023-04-01T01:51:57;98904.78;;;15.21;47.13
60019;BME280;45870;42.528;26.740;2023-04-01T01:54:23;98900.78;;;15.47;45.28
60019;BME280;45870;42.528;26.740;2023-04-01T01:56:51;98898.06;;;15.42;45.04
60019;BME280;45870;42.528;26.740;2023-04-01T01:59:22;98903.59;;;14.93;45.03
60019;BME280;45870;42.528;26.740;2023-04-01T02:01:52;98895.34;;;13.65;49.47
60019;BME280;45870;42.528;26.740;2023-04-01T02:04:21;98873.94;;;14.53;47.47
60019;BME280;45870;42.528;26.740;2023-04-01T02:06:54;98896.16;;;13.86;48.88
60019;BME280;45870;42.528;26.740;2023-04-01T02:09:22;98887.69;;;14.77;46.38
60019;BME280;45870;42.528;26.740;2023-04-01T02:11:51;98891.91;;;14.93;46.17
60019;BME280;45870;42.528;26.740;2023-04-01T02:14:20;98893.81;;;14.97;46.09
60019;BME280;45870;42.528;26.740;2023-04-01T02:16:59;98879.63;;;15.06;46.00
60019;BME280;45870;42.528;26.740;2023-04-01T02:19:33;98883.69;;;15.03;45.46
60019;BME280;45870;42.528;26.740;2023-04-01T02:22:04;98873.84;;;14.09;46.69
60019;BME280;45870;42.528;26.740;2023-04-01T02:24:33;98882.25;;;14.08;48.06
60019;BME280;45870;42.528;26.740;2023-04-01T02:27:01;98887.94;;;14.75;46.19
60019;BME280;45870;42.528;26.740;2023-04-01T02:29:27;98883.50;;;14.94;44.97
60019;BME280;45870;42.528;26.740;2023-04-01T02:31:54;98879.16;;;14.88;45.05
60019;BME280;45870;42.528;26.740;2023-04-01T02:34:21;98842.97;;;13.90;46.53
60019;BME280;45870;42.528;26.740;2023-04-01T02:36:51;98887.44;;;13.99;47.25
60019;BME280;45870;42.528;26.740;2023-04-01T02:39:18;98892.94;;;14.63;45.93
60019;BME280;45870;42.528;26.740;2023-04-01T02:41:45;98876.00;;;14.17;46.28
60019;BME280;45870;42.528;26.740;2023-04-01T02:44:13;98889.91;;;14.70;46.14
60019;BME280;45870;42.528;26.740;2023-04-01T02:46:39;98871.88;;;14.35;46.04
60019;BME280;45870;42.528;26.740;2023-04-01T02:49:05;98892.59;;;12.79;49.14
60019;BME280;45870;42.528;26.740;2023-04-01T02:51:31;98885.31;;;13.86;46.86
60019;BME280;45870;42.528;26.740;2023-04-01T02:53:57;98879.09;;;13.75;47.45
60019;BME280;45870;42.528;26.740;2023-04-01T02:56:23;98894.50;;;12.79;50.02
60019;BME280;45870;42.528;26.740;2023-04-01T02:58:48;98877.78;;;13.42;47.50
60019;BME280;45870;42.528;26.740;2023-04-01T03:01:14;98872.75;;;12.53;48.47
60019;BME280;45870;42.528;26.740;2023-04-01T03:03:40;98870.03;;;11.08;52.58
60019;BME280;45870;42.528;26.740;2023-04-01T03:06:07;98867.44;;;11.60;51.14
60019;BME280;45870;42.528;26.740;2023-04-01T03:08:34;98871.28;;;13.33;46.65
60019;BME280;45870;42.528;26.740;2023-04-01T03:11:00;98856.59;;;12.89;48.04
60019;BME280;45870;42.528;26.740;2023-04-01T03:13:26;98851.13;;;12.59;49.00
60019;BME280;45870;42.528;26.740;2023-04-01T03:15:52;98838.97;;;12.81;48.04
60019;BME280;45870;42.528;26.740;2023-04-01T03:18:18;98845.53;;;13.36;46.22
60019;BME280;45870;42.528;26.740;2023-04-01T03:20:44;98837.94;;;13.38;46.17
60019;BME280;45870;42.528;26.740;2023-04-01T03:23:10;98811.66;;;13.28;46.92
60019;BME280;45870;42.528;26.740;2023-04-01T03:25:36;98832.53;;;13.23;47.33
60019;BME280;45870;42.528;26.740;2023-04-01T03:28:02;98845.78;;;13.49;47.85
60019;BME280;45870;42.528;26.740;2023-04-01T03:30:28;98835.19;;;13.68;47.75
60019;BME280;45870;42.528;26.740;2023-04-01T03:32:58;98844.00;;;14.14;46.89
60019;BME280;45870;42.528;26.740;2023-04-01T03:35:25;98822.34;;;13.99;46.74
60019;BME280;45870;42.528;26.740;2023-04-01T03:37:53;98842.81;;;14.25;46.58
60019;BME280;45870;42.528;26.740;2023-04-01T03:40:19;98837.91;;;14.42;46.18
60019;BME280;45870;42.528;26.740;2023-04-01T03:42:45;98846.22;;;13.92;46.60
60019;BME280;45870;42.528;26.740;2023-04-01T03:45:11;98821.25;;;14.00;46.34
60019;BME280;45870;42.528;26.740;2023-04-01T03:47:38;98847.63;;;12.68;49.42
60019;BME280;45870;42.528;26.740;2023-04-01T03:50:06;98856.41;;;12.13;51.08
60019;BME280;45870;42.528;26.740;2023-04-01T03:52:32;98841.78;;;11.62;53.18
60019;BME280;45870;42.528;26.740;2023-04-01T03:54:58;98839.22;;;12.65;51.65
60019;BME280;45870;42.528;26.740;2023-04-01T03:57:24;98844.69;;;13.50;48.42
60019;BME280;45870;42.528;26.740;2023-04-01T03:59:50;98842.53;;;12.97;49.59
60019;BME280;45870;42.528;26.740;2023-04-01T04:02:16;98837.38;;;13.31;49.58
60019;BME280;45870;42.528;26.740;2023-04-01T04:04:42;98830.16;;;14.06;48.25
60019;BME280;45870;42.528;26.740;2023-04-01T04:07:08;98821.97;;;14.16;47.96
60019;BME280;45870;42.528;26.740;2023-04-01T04:09:34;98820.22;;;14.89;47.41
60019;BME280;45870;42.528;26.740;2023-04-01T04:12:00;98841.09;;;14.55;48.38
60019;BME280;45870;42.528;26.740;2023-04-01T04:14:26;98843.22;;;15.02;47.67
60019;BME280;45870;42.528;26.740;2023-04-01T04:16:52;98843.41;;;12.10;54.64
60019;BME280;45870;42.528;26.740;2023-04-01T04:19:18;98837.09;;;12.92;51.03
60019;BME280;45870;42.528;26.740;2023-04-01T04:21:43;98851.84;;;12.24;53.50
60019;BME280;45870;42.528;26.740;2023-04-01T04:24:09;98836.09;;;12.11;53.79
60019;BME280;45870;42.528;26.740;2023-04-01T04:26:36;98834.38;;;11.47;54.13
60019;BME280;45870;42.528;26.740;2023-04-01T04:29:02;98840.50;;;10.42;57.53
60019;BME280;45870;42.528;26.740;2023-04-01T04:31:28;98829.50;;;13.60;49.04
60019;BME280;45870;42.528;26.740;2023-04-01T04:33:55;98831.91;;;11.04;54.91
60019;BME280;45870;42.528;26.740;2023-04-01T04:36:21;98833.63;;;13.12;49.65
60019;BME280;45870;42.528;26.740;2023-04-01T04:38:47;98832.19;;;11.86;53.54
60019;BME280;45870;42.528;26.740;2023-04-01T04:41:14;98835.97;;;14.48;47.00
60019;BME280;45870;42.528;26.740;2023-04-01T04:43:41;98832.84;;;14.70;46.66
60019;BME280;45870;42.528;26.740;2023-04-01T04:46:10;98822.25;;;15.07;44.97
60019;BME280;45870;42.528;26.740;2023-04-01T04:48:36;98822.13;;;15.22;44.81
60019;BME280;45870;42.528;26.740;2023-04-01T04:51:02;98823.75;;;14.89;45.65
60019;BME280;45870;42.528;26.740;2023-04-01T04:53:28;98811.38;;;13.20;50.08
60019;BME280;45870;42.528;26.740;2023-04-01T04:55:54;98806.19;;;12.47;52.55
60019;BME280;45870;42.528;26.740;2023-04-01T04:58:19;98816.06;;;12.12;54.50
60019;BME280;45870;42.528;26.740;2023-04-01T05:00:46;98810.84;;;13.18;52.21
60019;BME280;45870;42.528;26.740;2023-04-01T05:03:14;98797.97;;;14.48;50.13
60019;BME280;45870;42.528;26.740;2023-04-01T05:05:48;98794.91;;;16.65;45.45
60019;BME280;45870;42.528;26.740;2023-04-01T05:08:14;98794.53;;;16.53;44.81
60019;BME280;45870;42.528;26.740;2023-04-01T05:10:40;98816.09;;;17.83;42.74
60019;BME280;45870;42.528;26.740;2023-04-01T05:13:06;98806.97;;;17.88;42.98
60019;BME280;45870;42.528;26.740;2023-04-01T05:15:32;98788.91;;;18.55;41.95
60019;BME280;45870;42.528;26.740;2023-04-01T05:17:58;98794.34;;;18.69;42.09
60019;BME280;45870;42.528;26.740;2023-04-01T05:20:24;98786.31;;;18.23;42.77
60019;BME280;45870;42.528;26.740;2023-04-01T05:22:49;98787.03;;;18.78;42.80
60019;BME280;45870;42.528;26.740;2023-04-01T05:25:15;98789.03;;;19.08;42.19
60019;BME280;45870;42.528;26.740;2023-04-01T05:27:41;98774.97;;;17.02;47.82
60019;BME280;45870;42.528;26.740;2023-04-01T05:30:07;98773.00;;;17.67;46.63
60019;BME280;45870;42.528;26.740;2023-04-01T05:32:33;98771.50;;;19.62;42.14
60019;BME280;45870;42.528;26.740;2023-04-01T05:34:58;98775.34;;;18.86;43.67
60019;BME280;45870;42.528;26.740;2023-04-01T05:37:24;98783.63;;;18.09;45.77
60019;BME280;45870;42.528;26.740;2023-04-01T05:39:50;98764.38;;;19.53;42.47
60019;BME280;45870;42.528;26.740;2023-04-01T05:42:15;98787.22;;;19.04;43.72
60019;BME280;45870;42.528;26.740;2023-04-01T05:44:41;98804.66;;;18.22;44.48
60019;BME280;45870;42.528;26.740;2023-04-01T05:47:07;98796.16;;;16.91;48.65
60019;BME280;45870;42.528;26.740;2023-04-01T05:49:33;98800.97;;;13.82;56.68
60019;BME280;45870;42.528;26.740;2023-04-01T05:51:59;98791.50;;;14.39;54.76
60019;BME280;45870;42.528;26.740;2023-04-01T05:54:25;98755.22;;;17.69;46.07
60019;BME280;45870;42.528;26.740;2023-04-01T05:56:50;98759.28;;;17.26;48.15
60019;BME280;45870;42.528;26.740;2023-04-01T05:59:16;98790.78;;;17.18;47.08
60019;BME280;45870;42.528;26.740;2023-04-01T06:01:42;98792.38;;;17.38;47.36
60019;BME280;45870;42.528;26.740;2023-04-01T06:04:16;98781.94;;;20.56;40.58
60019;BME280;45870;42.528;26.740;2023-04-01T06:06:42;98786.78;;;18.88;43.94
60019;BME280;45870;42.528;26.740;2023-04-01T06:09:16;98787.41;;;19.52;42.18
60019;BME280;45870;42.528;26.740;2023-04-01T06:14:32;98788.38;;;23.46;34.49
60019;BME280;45870;42.528;26.740;2023-04-01T06:22:58;98791.00;;;17.22;47.29
60019;BME280;45870;42.528;26.740;2023-04-01T06:25:38;98785.50;;;22.10;38.21
60019;BME280;45870;42.528;26.740;2023-04-01T06:41:51;98785.88;;;23.89;33.98
60019;BME280;45870;42.528;26.740;2023-04-01T06:47:36;98775.47;;;22.14;36.36
60019;BME280;45870;42.528;26.740;2023-04-01T06:53:10;98773.81;;;21.83;39.04
60019;BME280;45870;42.528;26.740;2023-04-01T06:55:42;98770.78;;;21.76;39.60
60019;BME280;45870;42.528;26.740;2023-04-01T06:58:30;98767.69;;;21.78;40.71
60019;BME280;45870;42.528;26.740;2023-04-01T07:01:03;98761.16;;;25.49;35.00
60019;BME280;45870;42.528;26.740;2023-04-01T07:06:03;98754.09;;;29.59;28.68
60019;BME280;45870;42.528;26.740;2023-04-01T07:08:32;98758.59;;;29.74;27.48
60019;BME280;45870;42.528;26.740;2023-04-01T07:11:05;98741.00;;;24.38;35.67
60019;BME280;45870;42.528;26.740;2023-04-01T07:13:48;98736.34;;;25.37;34.41
60019;BME280;45870;42.528;26.740;2023-04-01T07:16:19;98727.34;;;28.51;30.66
60019;BME280;45870;42.528;26.740;2023-04-01T07:18:50;98733.81;;;28.58;30.04
60019;BME280;45870;42.528;26.740;2023-04-01T07:21:51;98745.19;;;24.59;36.32
60019;BME280;45870;42.528;26.740;2023-04-01T07:24:27;98730.22;;;24.20;37.21
60019;BME280;45870;42.528;26.740;2023-04-01T07:26:56;98740.91;;;22.54;39.92
60019;BME280;45870;42.528;26.740;2023-04-01T07:29:23;98750.97;;;23.24;39.51
60019;BME280;45870;42.528;26.740;2023-04-01T07:37:42;98732.06;;;21.06;43.79
60019;BME280;45870;42.528;26.740;2023-04-01T07:40:24;98733.53;;;20.77;44.32
60019;BME280;45870;42.528;26.740;2023-04-01T07:48:50;98727.97;;;22.55;41.47
60019;BME280;45870;42.528;26.740;2023-04-01T07:54:22;98720.25;;;22.27;41.52
60019;BME280;45870;42.528;26.740;2023-04-01T07:59:48;98709.16;;;24.04;37.62
60019;BME280;45870;42.528;26.740;2023-04-01T08:05:19;98693.38;;;26.53;32.23
60019;BME280;45870;42.528;26.740;2023-04-01T08:08:13;98687.75;;;23.16;38.36
60019;BME280;45870;42.528;26.740;2023-04-01T08:11:08;98691.06;;;22.35;40.72
60019;BME280;45870;42.528;26.740;2023-04-01T08:13:53;98671.22;;;22.50;41.04
60019;BME280;45870;42.528;26.740;2023-04-01T08:16:37;98678.31;;;24.50;37.53
60019;BME280;45870;42.528;26.740;2023-04-01T08:22:26;98669.03;;;22.44;40.68
60019;BME280;45870;42.528;26.740;2023-04-01T08:24:55;98660.72;;;22.73;39.70
60019;BME280;45870;42.528;26.740;2023-04-01T08:27:37;98662.44;;;22.57;40.16
60019;BME280;45870;42.528;26.740;2023-04-01T08:30:24;98660.69;;;22.52;40.41
60019;BME280;45870;42.528;26.740;2023-04-01T08:32:59;98662.31;;;21.24;42.92
60019;BME280;45870;42.528;26.740;2023-04-01T08:35:33;98660.84;;;23.82;37.22
60019;BME280;45870;42.528;26.740;2023-04-01T08:38:11;98666.25;;;23.42;38.79
60019;BME280;45870;42.528;26.740;2023-04-01T08:41:00;98655.25;;;23.66;38.23
60019;BME280;45870;42.528;26.740;2023-04-01T08:46:25;98643.38;;;23.17;38.09
60019;BME280;45870;42.528;26.740;2023-04-01T08:49:05;98646.72;;;22.78;38.73
60019;BME280;45870;42.528;26.740;2023-04-01T08:51:43;98635.97;;;24.58;35.88
60019;BME280;45870;42.528;26.740;2023-04-01T08:57:01;98621.22;;;27.75;31.17
60019;BME280;45870;42.528;26.740;2023-04-01T09:00:00;98613.25;;;29.33;28.97
60019;BME280;45870;42.528;26.740;2023-04-01T09:03:10;98609.69;;;24.76;36.50
60019;BME280;45870;42.528;26.740;2023-04-01T09:14:10;98593.28;;;24.68;36.42
60019;BME280;45870;42.528;26.740;2023-04-01T09:28:16;98577.03;;;25.92;36.23
60019;BME280;45870;42.528;26.740;2023-04-01T09:30:51;98571.63;;;24.98;37.04
60019;BME280;45870;42.528;26.740;2023-04-01T09:33:42;98570.38;;;25.11;37.64
60019;BME280;45870;42.528;26.740;2023-04-01T09:39:15;98558.91;;;27.43;32.94
60019;BME280;45870;42.528;26.740;2023-04-01T09:44:34;98550.50;;;25.21;37.67
60019;BME280;45870;42.528;26.740;2023-04-01T09:53:12;98533.09;;;23.62;40.28
60019;BME280;45870;42.528;26.740;2023-04-01T09:56:08;98535.09;;;23.50;40.78
60019;BME280;45870;42.528;26.740;2023-04-01T09:59:08;98531.44;;;23.46;41.11
60019;BME280;45870;42.528;26.740;2023-04-01T10:04:59;98523.38;;;25.58;35.78
60019;BME280;45870;42.528;26.740;2023-04-01T10:07:35;98531.03;;;25.64;35.65
60019;BME280;45870;42.528;26.740;2023-04-01T10:10:35;98516.25;;;25.95;36.37
60019;BME280;45870;42.528;26.740;2023-04-01T10:21:48;98500.56;;;24.20;39.59
60019;BME280;45870;42.528;26.740;2023-04-01T10:41:05;98453.41;;;27.02;33.93
60019;BME280;45870;42.528;26.740;2023-04-01T10:43:46;98422.88;;;27.51;33.78
60019;BME280;45870;42.528;26.740;2023-04-01T10:46:53;98439.00;;;24.78;37.53
60019;BME280;45870;42.528;26.740;2023-04-01T10:52:50;98417.44;;;25.15;36.76
60019;BME280;45870;42.528;26.740;2023-04-01T10:55:50;98420.03;;;25.08;36.92
60019;BME280;45870;42.528;26.740;2023-04-01T11:15:02;98387.19;;;27.20;32.65
60019;BME280;45870;42.528;26.740;2023-04-01T11:31:34;98348.50;;;27.27;33.95
60019;BME280;45870;42.528;26.740;2023-04-01T11:39:32;98336.66;;;27.97;32.28
60019;BME280;45870;42.528;26.740;2023-04-01T11:42:14;98338.13;;;27.87;32.11
60019;BME280;45870;42.528;26.740;2023-04-01T11:44:46;98337.88;;;27.33;32.44
60019;BME280;45870;42.528;26.740;2023-04-01T11:53:26;98323.44;;;28.23;31.12
60019;BME280;45870;42.528;26.740;2023-04-01T12:04:10;98315.00;;;27.72;31.49
60019;BME280;45870;42.528;26.740;2023-04-01T12:14:26;98299.97;;;29.37;29.45
60019;BME280;45870;42.528;26.740;2023-04-01T12:28:29;98275.50;;;27.12;31.69
60019;BME280;45870;42.528;26.740;2023-04-01T12:31:27;98255.66;;;27.40;31.08
60019;BME280;45870;42.528;26.740;2023-04-01T12:45:02;98252.22;;;27.50;29.85
60019;BME280;45870;42.528;26.740;2023-04-01T12:47:40;98249.97;;;28.65;28.88
60019;BME280;45870;42.528;26.740;2023-04-01T12:50:16;98262.34;;;28.16;29.73
60019;BME280;45870;42.528;26.740;2023-04-01T12:55:41;98259.34;;;27.95;32.65
60019;BME280;45870;42.528;26.740;2023-04-01T12:58:29;98251.94;;;27.66;32.62
60019;BME280;45870;42.528;26.740;2023-04-01T13:09:50;98250.44;;;26.72;33.41
60019;BME280;45870;42.528;26.740;2023-04-01T13:15:31;98256.78;;;28.16;31.64
60019;BME280;45870;42.528;26.740;2023-04-01T13:18:29;98251.38;;;28.38;31.78
60019;BME280;45870;42.528;26.740;2023-04-01T13:21:09;98237.88;;;27.45;32.19
60019;BME280;45870;42.528;26.740;2023-04-01T13:23:52;98240.72;;;27.15;32.17
60019;BME280;45870;42.528;26.740;2023-04-01T13:29:25;98244.09;;;27.71;31.50
60019;BME280;45870;42.528;26.740;2023-04-01T13:32:23;98241.66;;;26.96;33.20
60019;BME280;45870;42.528;26.740;2023-04-01T13:38:04;98236.22;;;27.37;32.26
60019;BME280;45870;42.528;26.740;2023-04-01T13:40:48;98237.25;;;27.58;32.29
60019;BME280;45870;42.528;26.740;2023-04-01T13:43:28;98234.78;;;27.94;31.52
60019;BME280;45870;42.528;26.740;2023-04-01T13:56:57;98213.19;;;28.17;31.11
60019;BME280;45870;42.528;26.740;2023-04-01T14:13:25;98169.50;;;27.56;30.68
60019;BME280;45870;42.528;26.740;2023-04-01T14:19:11;98153.81;;;28.25;29.21
60019;BME280;45870;42.528;26.740;2023-04-01T14:28:03;98123.44;;;27.00;31.01
60019;BME280;45870;42.528;26.740;2023-04-01T14:30:51;98136.75;;;28.26;28.66
60019;BME280;45870;42.528;26.740;2023-04-01T14:33:26;98145.56;;;28.43;28.70
60019;BME280;45870;42.528;26.740;2023-04-01T14:39:00;98135.63;;;28.38;28.68
60019;BME280;45870;42.528;26.740;2023-04-01T14:41:48;98121.09;;;27.97;29.13
60019;BME280;45870;42.528;26.740;2023-04-01T14:44:43;98122.22;;;28.61;28.67
60019;BME280;45870;42.528;26.740;2023-04-01T14:47:44;98116.47;;;28.15;29.31
60019;BME280;45870;42.528;26.740;2023-04-01T14:50:16;98126.69;;;27.09;30.48
60019;BME280;45870;42.528;26.740;2023-04-01T14:58:11;98104.03;;;24.83;33.94
60019;BME280;45870;42.528;26.740;2023-04-01T15:03:22;98088.97;;;24.80;34.32
60019;BME280;45870;42.528;26.740;2023-04-01T15:08:54;98085.38;;;24.57;34.43
60019;BME280;45870;42.528;26.740;2023-04-01T15:11:28;98082.69;;;24.61;34.23
60019;BME280;45870;42.528;26.740;2023-04-01T15:14:21;98089.31;;;25.21;32.75
60019;BME280;45870;42.528;26.740;2023-04-01T15:31:15;98095.00;;;24.86;34.46
60019;BME280;45870;42.528;26.740;2023-04-01T15:36:25;98088.28;;;23.40;36.39
60019;BME280;45870;42.528;26.740;2023-04-01T15:44:46;98074.22;;;22.67;36.94
60019;BME280;45870;42.528;26.740;2023-04-01T15:55:39;98093.66;;;23.84;35.79
60019;BME280;45870;42.528;26.740;2023-04-01T16:16:00;98112.28;;;21.73;38.77
60019;BME280;45870;42.528;26.740;2023-04-01T16:18:47;98112.19;;;21.58;38.53
60019;BME280;45870;42.528;26.740;2023-04-01T16:21:35;98126.56;;;22.03;38.10
60019;BME280;45870;42.528;26.740;2023-04-01T16:24:32;98133.50;;;22.53;36.75
60019;BME280;45870;42.528;26.740;2023-04-01T16:37:36;98110.94;;;21.92;41.41
60019;BME280;45870;42.528;26.740;2023-04-01T16:43:19;98186.72;;;20.58;44.17
60019;BME280;45870;42.528;26.740;2023-04-01T16:48:50;98215.69;;;17.70;57.18
60019;BME280;45870;42.528;26.740;2023-04-01T16:51:18;98183.81;;;17.17;60.05
60019;BME280;45870;42.528;26.740;2023-04-01T16:56:53;98185.94;;;16.89;62.92
60019;BME280;45870;42.528;26.740;2023-04-01T16:59:35;98206.13;;;16.66;64.31
60019;BME280;45870;42.528;26.740;2023-04-01T17:18:50;98243.72;;;20.85;48.75
60019;BME280;45870;42.528;26.740;2023-04-01T17:29:28;98274.84;;;19.80;50.82
60019;BME280;45870;42.528;26.740;2023-04-01T17:32:11;98261.72;;;20.74;48.34
60019;BME280;45870;42.528;26.740;2023-04-01T17:35:12;98277.19;;;20.58;48.57
60019;BME280;45870;42.528;26.740;2023-04-01T17:37:46;98276.69;;;20.35;48.98
60019;BME280;45870;42.528;26.740;2023-04-01T17:40:31;98280.69;;;20.37;48.66
60019;BME280;45870;42.528;26.740;2023-04-01T17:45:44;98316.31;;;20.00;49.12
60019;BME280;45870;42.528;26.740;2023-04-01T17:48:49;98325.34;;;19.11;51.70
60019;BME280;45870;42.528;26.740;2023-04-01T17:51:50;98331.28;;;19.56;49.92
60019;BME280;45870;42.528;26.740;2023-04-01T18:03:24;98346.13;;;19.20;47.22
60019;BME280;45870;42.528;26.740;2023-04-01T18:08:46;98358.63;;;18.61;48.69
60019;BME280;45870;42.528;26.740;2023-04-01T18:17:43;98345.84;;;18.48;49.02
60019;BME280;45870;42.528;26.740;2023-04-01T18:26:04;98364.56;;;20.21;46.12
60019;BME280;45870;42.528;26.740;2023-04-01T18:28:41;98364.41;;;20.18;46.17
60019;BME280;45870;42.528;26.740;2023-04-01T18:31:17;98369.91;;;18.85;50.36
60019;BME280;45870;42.528;26.740;2023-04-01T18:36:44;98370.72;;;19.63;49.17
60019;BME280;45870;42.528;26.740;2023-04-01T18:41:53;98396.34;;;17.36;54.93
60019;BME280;45870;42.528;26.740;2023-04-01T18:53:22;98397.25;;;18.85;49.58
60019;BME280;45870;42.528;26.740;2023-04-01T18:55:56;98378.94;;;19.37;48.19
60019;BME280;45870;42.528;26.740;2023-04-01T18:58:28;98392.28;;;18.96;48.62
60019;BME280;45870;42.528;26.740;2023-04-01T19:01:19;98406.28;;;18.46;50.16
60019;BME280;45870;42.528;26.740;2023-04-01T19:06:47;98421.16;;;17.92;51.93
60019;BME280;45870;42.528;26.740;2023-04-01T19:09:32;98405.09;;;17.69;52.35
60019;BME280;45870;42.528;26.740;2023-04-01T19:15:00;98421.84;;;19.97;46.79
60019;BME280;45870;42.528;26.740;2023-04-01T19:20:34;98408.19;;;21.43;43.33
60019;BME280;45870;42.528;26.740;2023-04-01T19:25:53;98400.22;;;21.51;43.22
60019;BME280;45870;42.528;26.740;2023-04-01T19:36:29;98415.13;;;20.41;47.03
60019;BME280;45870;42.528;26.740;2023-04-01T19:41:45;98419.53;;;19.44;49.67
60019;BME280;45870;42.528;26.740;2023-04-01T19:49:46;98433.19;;;17.11;56.22
60019;BME280;45870;42.528;26.740;2023-04-01T19:52:29;98420.53;;;16.66;57.83
60019;BME280;45870;42.528;26.740;2023-04-01T20:03:04;98452.63;;;19.00;50.14
60019;BME280;45870;42.528;26.740;2023-04-01T20:14:04;98450.22;;;19.15;49.02
60019;BME280;45870;42.528;26.740;2023-04-01T20:19:59;98466.06;;;17.86;52.30
60019;BME280;45870;42.528;26.740;2023-04-01T20:25:16;98482.19;;;16.02;59.13
60019;BME280;45870;42.528;26.740;2023-04-01T20:39:25;98441.78;;;18.77;50.07
60019;BME280;45870;42.528;26.740;2023-04-01T20:50:29;98444.97;;;19.44;48.14
60019;BME280;45870;42.528;26.740;2023-04-01T20:53:10;98452.50;;;19.30;48.61
60019;BME280;45870;42.528;26.740;2023-04-01T21:01:34;98370.16;;;15.17;60.99
60019;BME280;45870;42.528;26.740;2023-04-01T21:14:55;98430.72;;;17.81;52.13
60019;BME280;45870;42.528;26.740;2023-04-01T21:20:39;98453.44;;;18.30;50.12
60019;BME280;45870;42.528;26.740;2023-04-01T21:23:57;98454.28;;;18.00;50.74
60019;BME280;45870;42.528;26.740;2023-04-01T21:26:41;98455.31;;;16.96;54.03
60019;BME280;45870;42.528;26.740;2023-04-01T21:44:26;98505.78;;;15.74;56.56
60019;BME280;45870;42.528;26.740;2023-04-01T21:49:38;98488.81;;;17.60;50.57
60019;BME280;45870;42.528;26.740;2023-04-01T22:03:48;98500.44;;;18.40;47.67
60019;BME280;45870;42.528;26.740;2023-04-01T22:06:37;98501.28;;;17.74;49.17
60019;BME280;45870;42.528;26.740;2023-04-01T22:09:10;98502.78;;;18.03;48.19
60019;BME280;45870;42.528;26.740;2023-04-01T22:11:58;98503.59;;;17.45;49.78
60019;BME280;45870;42.528;26.740;2023-04-01T22:14:37;98483.31;;;17.73;47.93
60019;BME280;45870;42.528;26.740;2023-04-01T22:20:14;98516.56;;;17.26;49.33
60019;BME280;45870;42.528;26.740;2023-04-01T22:23:08;98527.22;;;17.49;48.47
60019;BME280;45870;42.528;26.740;2023-04-01T22:25:46;98525.03;;;17.24;48.61
60019;BME280;45870;42.528;26.740;2023-04-01T22:28:25;98523.16;;;17.11;48.37
60019;BME280;45870;42.528;26.740;2023-04-01T22:31:02;98535.25;;;17.32;47.34
60019;BME280;45870;42.528;26.740;2023-04-01T22:34:13;98547.94;;;16.09;50.43
60019;BME280;45870;42.528;26.740;2023-04-01T22:37:17;98535.56;;;15.05;53.93
60019;BME280;45870;42.528;26.740;2023-04-01T22:40:00;98542.38;;;15.44;53.87